Maran Canopus — SXUQ — position and weather

sailwx.info

Track history (hours):
 
Tides and Currents Weather Stations Pressure Air Temp Water Temp Dewpoint Dewpoint Depression Visibility Wind Speed Wind Dir Waves Ship Positions

Maran Canopus

Last reported at 2017-Jan-20 13:09 UTC. Time now 2017-Feb-26 13:14 UTC.
Position S 33°52' E 018°08'.
Warning: this ship's position is 37 days out of date.

Length 333 m; draft 21 m.

Type: Tanker. MMSI: 240677000.

Date/timePositionNaut miles runAvg speedWind from/ knotsBaromVisibWave heightAir tempDewpointWater temp
2017-Jan-20 13:09S 33°52' E 018°08'5 8.9
2017-Jan-20 12:33S 33°54' E 018°14'1 0.6
2017-Jan-20 11:33S 33°55' E 018°14'1 0.9
2017-Jan-20 10:33S 33°55' E 018°13'1 1.0
2017-Jan-20 09:33S 33°55' E 018°12'7 6.9
2017-Jan-20 08:32S 34°01' E 018°08'  
2017-Jan-17 07:28S 30°31' E 031°29'9 9.6
2017-Jan-17 06:32S 30°24' E 031°36'10 9.9
2017-Jan-17 05:33S 30°17' E 031°43'1313.0
2017-Jan-17 04:33S 30°07' E 031°53'1413.0
2017-Jan-17 03:29S 29°57' E 032°03'  
Track history (hours):
 
Tides and Currents Weather Stations Pressure Air Temp Water Temp Dewpoint Dewpoint Depression Visibility Wind Speed Wind Dir Waves Ship Positions

Maran Canopus

Last reported at 2017-Jan-20 13:09 UTC. Time now 2017-Feb-26 13:14 UTC.
Position S 33°52' E 018°08'.
Warning: this ship's position is 37 days out of date.

Length 333 m; draft 21 m.

Type: Tanker. MMSI: 240677000.

Date/timePositionNaut miles runAvg speedWind from/ knotsBaromVisibWave heightAir tempDewpointWater temp
2017-Jan-20 13:09S 33°52' E 018°08'5 8.9
2017-Jan-20 12:33S 33°54' E 018°14'1 0.6
2017-Jan-20 11:33S 33°55' E 018°14'1 0.9
2017-Jan-20 10:33S 33°55' E 018°13'1 1.0
2017-Jan-20 09:33S 33°55' E 018°12'7 6.9
2017-Jan-20 08:32S 34°01' E 018°08'  
2017-Jan-17 07:28S 30°31' E 031°29'9 9.6
2017-Jan-17 06:32S 30°24' E 031°36'10 9.9
2017-Jan-17 05:33S 30°17' E 031°43'1313.0
2017-Jan-17 04:33S 30°07' E 031°53'1413.0
2017-Jan-17 03:29S 29°57' E 032°03'  

Dump ship's entire track history